Terminal Aerodrome Forecast
Issued by NWS

Home | Current Version | Previous Version | Text Only | Print | Product List | Glossary On
Versions: 1 2 3 4 5 6 7 8 9 10 11 12 13 14 15 16 17 18 19 20 21
000
FTUS43 KPAH 261459 AAC
TAFCGI
TAF AMD
KCGI 261459Z 2615/2712 25003KT P6SM SCT006
      TEMPO 2615/2618 BKN015
     FM261800 21004KT P6SM VCTS SCT035CB
     FM262300 VRB03KT P6SM SCT050 BKN200
     FM270700 00000KT 3SM BR FEW040 BKN250=

USA.gov is the U.S. government's official web portal to all federal, state and local government web resources and services.